Wetterdaten: aktuell Samstag, 09.05.2026 11:55
Datum Zeit Temp. A. Feuchte A. Luftdruck Regen Wind Richtung Richtung Taupunkt Windchill
09.05.2026 11:55 18,9 °C 40 % 1011,1 hPa 0,0 l/m² 5,9 km/h (2 Bft) O-NO±67.5° 60 ° 5,0 °C 18,9 °C
09.05.2026 11:53 18,6 °C 40 % 1011,1 hPa 0,0 l/m² 7,3 km/h (2 Bft) O±67.5° 85 ° 4,7 °C 18,2 °C
09.05.2026 11:51 18,4 °C 40 % 1011,1 hPa 0,0 l/m² 10,6 km/h (2 Bft) O-NO±67.5° 60 ° 4,6 °C 16,7 °C
09.05.2026 11:49 18,4 °C 40 % 1011,1 hPa 0,0 l/m² 7,8 km/h (2 Bft) N±45° 5 ° 4,6 °C 17,8 °C
09.05.2026 11:47 18,4 °C 41 % 1011,1 hPa 0,0 l/m² 7,8 km/h (2 Bft) N±45° 5 ° 4,9 °C 17,8 °C
09.05.2026 11:45 18,2 °C 41 % 1011,1 hPa 0,0 l/m² 5,8 km/h (2 Bft) NO±22.5° 35 ° 4,7 °C 18,2 °C
09.05.2026 11:43 18,2 °C 41 % 1011,1 hPa 0,0 l/m² 6,3 km/h (2 Bft) N±45° 10 ° 4,7 °C 18,2 °C
09.05.2026 11:41 18,0 °C 43 % 1011,1 hPa 0,0 l/m² 1,0 km/h (0 Bft) O-NO±45° 75 ° 5,2 °C 18,0 °C
09.05.2026 11:39 18,0 °C 43 % 1011,1 hPa 0,0 l/m² 1,0 km/h (0 Bft) O-NO±45° 75 ° 5,2 °C 18,0 °C
09.05.2026 11:37 18,0 °C 43 % 1011,1 hPa 0,0 l/m² 2,4 km/h (1 Bft) O±22.5° 80 ° 5,2 °C 18,0 °C
09.05.2026 11:35 17,7 °C 44 % 1011,2 hPa 0,0 l/m² 4,3 km/h (1 Bft) NO±45° 35 ° 5,3 °C 17,7 °C
09.05.2026 11:33 17,5 °C 43 % 1012,2 hPa 0,0 l/m² 4,3 km/h (1 Bft) NO±45° 35 ° 4,8 °C 17,5 °C
09.05.2026 11:31 17,5 °C 43 % 1012,2 hPa 0,0 l/m² 4,3 km/h (1 Bft) N-NW±22.5° 345 ° 4,8 °C 17,5 °C
09.05.2026 11:29 17,4 °C 43 % 1012,2 hPa 0,0 l/m² 2,7 km/h (1 Bft) NW 310 ° 4,7 °C 17,4 °C
09.05.2026 11:27 17,3 °C 44 % 1012,2 hPa 0,0 l/m² 6,5 km/h (2 Bft) NW 305 ° 4,9 °C 17,3 °C
09.05.2026 11:24 17,3 °C 43 % 1012,2 hPa 0,0 l/m² 6,5 km/h (2 Bft) NW 305 ° 4,6 °C 17,3 °C
09.05.2026 11:23 17,3 °C 43 % 1012,2 hPa 0,0 l/m² 1,2 km/h (1 Bft) N±22.5° 350 ° 4,6 °C 17,3 °C
09.05.2026 11:21 17,2 °C 43 % 1012,2 hPa 0,0 l/m² 4,7 km/h (1 Bft) N 350 ° 4,5 °C 17,2 °C
09.05.2026 11:19 17,2 °C 43 % 1012,2 hPa 0,0 l/m² 4,2 km/h (1 Bft) N-NW 345 ° 4,5 °C 17,2 °C
09.05.2026 11:17 17,2 °C 43 % 1012,2 hPa 0,0 l/m² 4,2 km/h (1 Bft) N-NW 345 ° 4,5 °C 17,2 °C
09.05.2026 11:15 17,2 °C 43 % 1012,2 hPa 0,0 l/m² 0,7 km/h (0 Bft) N 360 ° 4,5 °C 17,2 °C
09.05.2026 11:13 17,0 °C 43 % 1012,2 hPa 0,0 l/m² 5,5 km/h (1 Bft) N±22.5° 350 ° 4,3 °C 17,0 °C
09.05.2026 11:11 17,0 °C 43 % 1012,2 hPa 0,0 l/m² 5,5 km/h (1 Bft) N±22.5° 350 ° 4,3 °C 17,0 °C
09.05.2026 11:09 17,1 °C 43 % 1012,2 hPa 0,0 l/m² 1,9 km/h (1 Bft) N-NW±67.5° 330 ° 4,4 °C 17,1 °C
09.05.2026 11:07 17,2 °C 43 % 1012,2 hPa 0,0 l/m² 1,0 km/h (0 Bft) W-NW 300 ° 4,5 °C 17,2 °C
09.05.2026 11:05 17,2 °C 43 % 1012,2 hPa 0,0 l/m² 8,8 km/h (2 Bft) NW±22.5° 320 ° 4,5 °C 16,0 °C
09.05.2026 11:03 17,0 °C 43 % 1012,2 hPa 0,0 l/m² 8,8 km/h (2 Bft) NW±22.5° 320 ° 4,3 °C 15,8 °C
09.05.2026 11:01 17,1 °C 44 % 1012,2 hPa 0,0 l/m² 1,5 km/h (1 Bft) NO±67.5° 50 ° 4,8 °C 17,1 °C
09.05.2026 10:59 17,1 °C 44 % 1012,2 hPa 0,0 l/m² 1,5 km/h (1 Bft) NO±67.5° 50 ° 4,8 °C 17,1 °C
09.05.2026 10:57 17,1 °C 44 % 1012,2 hPa 0,0 l/m² 1,5 km/h (1 Bft) NO±67.5° 50 ° 4,8 °C 17,1 °C
09.05.2026 10:55 17,1 °C 44 % 1012,2 hPa 0,0 l/m² 4,8 km/h (1 Bft) NO±67.5° 35 ° 4,8 °C 17,1 °C
09.05.2026 10:53 17,1 °C 44 % 1012,2 hPa 0,0 l/m² 0,6 km/h (0 Bft) N 350 ° 4,8 °C 17,1 °C
09.05.2026 10:51 16,9 °C 44 % 1012,2 hPa 0,0 l/m² 5,2 km/h (1 Bft) N 350 ° 4,6 °C 16,9 °C
09.05.2026 10:49 16,9 °C 44 % 1012,2 hPa 0,0 l/m² 5,2 km/h (1 Bft) N 350 ° 4,6 °C 16,9 °C
09.05.2026 10:47 16,9 °C 44 % 1012,2 hPa 0,0 l/m² 4,3 km/h (1 Bft) N 350 ° 4,6 °C 16,9 °C
09.05.2026 10:44 16,9 °C 44 % 1012,2 hPa 0,0 l/m² 3,9 km/h (1 Bft) N 350 ° 4,6 °C 16,9 °C
09.05.2026 10:43 16,8 °C 45 % 1012,2 hPa 0,0 l/m² 2,8 km/h (1 Bft) N 350 ° 4,8 °C 16,8 °C
09.05.2026 10:41 16,8 °C 45 % 1012,2 hPa 0,0 l/m² 2,8 km/h (1 Bft) N 350 ° 4,8 °C 16,8 °C
09.05.2026 10:39 16,8 °C 45 % 1012,2 hPa 0,0 l/m² 4,2 km/h (1 Bft) N 350 ° 4,8 °C 16,8 °C
09.05.2026 10:37 16,7 °C 45 % 1012,2 hPa 0,0 l/m² 0,6 km/h (0 Bft) O-NO±22.5° 65 ° 4,7 °C 16,7 °C
09.05.2026 10:35 16,7 °C 45 % 1012,2 hPa 0,0 l/m² 0,6 km/h (0 Bft) O-NO±22.5° 65 ° 4,7 °C 16,7 °C
_ Min-Zeit 06:38 11:49 11:55 - 00:05 - - 11:03 06:38
Minimum _ 8,4 °C 40 % 1011,1 hPa - 0,0 km/h (0 Bft) - - 4,3 °C 8,4 °C
_ Max-Zeit 11:55 06:51 06:38 00:01 11:51 - - 08:27 11:55
Maximum _ 18,9 °C 81 % 1012,6 hPa 0,0 l/m² 10,6 km/h
O-NO (2 Bft)
- - 6,1 °C 18,9 °C
Durchschnitt _ 11,5 °C 67 % 1012,0 hPa #0,0 l/m² 0,9 km/h (0 Bft) N - 5,2 °C 11,4 °C